sensor_id;sensor_type;location;lat;lon;timestamp;pressure;altitude;pressure_sealevel;temperature;humidity
51496;BME280;37572;52.094;4.870;2024-02-26T00:00:05;99987.50;;;9.34;58.90
51496;BME280;37572;52.094;4.870;2024-02-26T00:02:35;99996.50;;;9.33;59.07
51496;BME280;37572;52.094;4.870;2024-02-26T00:05:04;99991.34;;;9.31;59.16
51496;BME280;37572;52.094;4.870;2024-02-26T00:07:30;99990.00;;;9.27;58.96
51496;BME280;37572;52.094;4.870;2024-02-26T00:09:55;99995.47;;;9.25;59.21
51496;BME280;37572;52.094;4.870;2024-02-26T00:12:20;99995.00;;;9.22;58.96
51496;BME280;37572;52.094;4.870;2024-02-26T00:14:46;99994.50;;;9.18;59.44
51496;BME280;37572;52.094;4.870;2024-02-26T00:17:13;99995.66;;;9.16;59.19
51496;BME280;37572;52.094;4.870;2024-02-26T00:19:38;99998.31;;;9.16;59.38
51496;BME280;37572;52.094;4.870;2024-02-26T00:22:03;99996.66;;;9.15;59.22
51496;BME280;37572;52.094;4.870;2024-02-26T00:24:29;99996.81;;;9.13;59.39
51496;BME280;37572;52.094;4.870;2024-02-26T00:26:54;99995.00;;;9.14;59.43
51496;BME280;37572;52.094;4.870;2024-02-26T00:29:20;100008.28;;;9.14;59.20
51496;BME280;37572;52.094;4.870;2024-02-26T00:31:45;100010.09;;;9.13;59.56
51496;BME280;37572;52.094;4.870;2024-02-26T00:34:10;100002.13;;;9.13;59.46
51496;BME280;37572;52.094;4.870;2024-02-26T00:36:36;100004.78;;;9.13;59.44
51496;BME280;37572;52.094;4.870;2024-02-26T00:39:01;100003.97;;;9.13;59.40
51496;BME280;37572;52.094;4.870;2024-02-26T00:41:28;100012.75;;;9.13;59.67
51496;BME280;37572;52.094;4.870;2024-02-26T00:43:53;100017.06;;;9.14;59.52
51496;BME280;37572;52.094;4.870;2024-02-26T00:46:19;100010.94;;;9.14;59.46
51496;BME280;37572;52.094;4.870;2024-02-26T00:48:44;100004.97;;;9.12;59.45
51496;BME280;37572;52.094;4.870;2024-02-26T00:51:09;100010.59;;;9.08;59.49
51496;BME280;37572;52.094;4.870;2024-02-26T00:53:35;100004.63;;;9.06;59.81
51496;BME280;37572;52.094;4.870;2024-02-26T00:56:00;100001.97;;;9.06;59.77
51496;BME280;37572;52.094;4.870;2024-02-26T00:58:26;100002.63;;;9.08;59.78
51496;BME280;37572;52.094;4.870;2024-02-26T01:00:51;100005.94;;;9.11;59.92
51496;BME280;37572;52.094;4.870;2024-02-26T01:03:17;100010.28;;;9.12;59.90
51496;BME280;37572;52.094;4.870;2024-02-26T01:05:42;100001.13;;;9.14;59.92
51496;BME280;37572;52.094;4.870;2024-02-26T01:08:08;100000.97;;;9.16;60.01
51496;BME280;37572;52.094;4.870;2024-02-26T01:10:33;100005.94;;;9.19;59.80
51496;BME280;37572;52.094;4.870;2024-02-26T01:12:59;100010.09;;;9.21;60.11
51496;BME280;37572;52.094;4.870;2024-02-26T01:15:24;100009.28;;;9.21;60.19
51496;BME280;37572;52.094;4.870;2024-02-26T01:17:50;100014.25;;;9.24;59.99
51496;BME280;37572;52.094;4.870;2024-02-26T01:20:16;100002.78;;;9.23;60.15
51496;BME280;37572;52.094;4.870;2024-02-26T01:22:42;100005.13;;;9.26;60.07
51496;BME280;37572;52.094;4.870;2024-02-26T01:25:08;100011.09;;;9.29;59.96
51496;BME280;37572;52.094;4.870;2024-02-26T01:27:35;100012.44;;;9.33;59.85
51496;BME280;37572;52.094;4.870;2024-02-26T01:30:00;100009.59;;;9.34;60.00
51496;BME280;37572;52.094;4.870;2024-02-26T01:32:25;100010.09;;;9.38;59.95
51496;BME280;37572;52.094;4.870;2024-02-26T01:34:51;100001.09;;;9.39;59.60
51496;BME280;37572;52.094;4.870;2024-02-26T01:37:16;100000.13;;;9.40;59.73
51496;BME280;37572;52.094;4.870;2024-02-26T01:39:41;100004.09;;;9.44;59.60
51496;BME280;37572;52.094;4.870;2024-02-26T01:42:07;100007.59;;;9.44;59.58
51496;BME280;37572;52.094;4.870;2024-02-26T01:44:32;99998.78;;;9.44;59.48
51496;BME280;37572;52.094;4.870;2024-02-26T01:46:58;100000.13;;;9.48;59.60
51496;BME280;37572;52.094;4.870;2024-02-26T01:49:24;99997.28;;;9.50;59.42
51496;BME280;37572;52.094;4.870;2024-02-26T01:51:49;99999.09;;;9.49;59.37
51496;BME280;37572;52.094;4.870;2024-02-26T01:54:14;100001.94;;;9.48;59.23
51496;BME280;37572;52.094;4.870;2024-02-26T01:56:41;100008.75;;;9.50;59.51
51496;BME280;37572;52.094;4.870;2024-02-26T01:59:08;100002.28;;;9.53;59.42
51496;BME280;37572;52.094;4.870;2024-02-26T02:01:34;100020.88;;;9.53;59.15
51496;BME280;37572;52.094;4.870;2024-02-26T02:04:00;100011.06;;;9.53;59.15
51496;BME280;37572;52.094;4.870;2024-02-26T02:06:26;100023.38;;;9.54;59.11
51496;BME280;37572;52.094;4.870;2024-02-26T02:08:54;100026.38;;;9.51;59.06
51496;BME280;37572;52.094;4.870;2024-02-26T02:11:19;100030.00;;;9.50;59.10
51496;BME280;37572;52.094;4.870;2024-02-26T02:13:45;100032.50;;;9.52;59.08
51496;BME280;37572;52.094;4.870;2024-02-26T02:16:10;100031.69;;;9.51;59.10
51496;BME280;37572;52.094;4.870;2024-02-26T02:18:36;100030.81;;;9.51;58.84
51496;BME280;37572;52.094;4.870;2024-02-26T02:21:01;100031.69;;;9.51;58.93
51496;BME280;37572;52.094;4.870;2024-02-26T02:23:26;100035.97;;;9.52;59.05
51496;BME280;37572;52.094;4.870;2024-02-26T02:25:52;100036.66;;;9.54;58.90
51496;BME280;37572;52.094;4.870;2024-02-26T02:28:18;100035.00;;;9.53;58.72
51496;BME280;37572;52.094;4.870;2024-02-26T02:30:44;100038.31;;;9.55;58.77
51496;BME280;37572;52.094;4.870;2024-02-26T02:33:10;100039.13;;;9.56;58.74
51496;BME280;37572;52.094;4.870;2024-02-26T02:35:36;100039.97;;;9.56;58.69
51496;BME280;37572;52.094;4.870;2024-02-26T02:38:03;100046.94;;;9.57;58.76
51496;BME280;37572;52.094;4.870;2024-02-26T02:40:28;100047.94;;;9.56;58.65
51496;BME280;37572;52.094;4.870;2024-02-26T02:42:53;100045.28;;;9.56;58.63
51496;BME280;37572;52.094;4.870;2024-02-26T02:45:19;100036.31;;;9.57;58.43
51496;BME280;37572;52.094;4.870;2024-02-26T02:47:44;100057.56;;;9.57;58.57
51496;BME280;37572;52.094;4.870;2024-02-26T02:50:09;100054.09;;;9.57;58.46
51496;BME280;37572;52.094;4.870;2024-02-26T02:52:35;100059.56;;;9.55;58.51
51496;BME280;37572;52.094;4.870;2024-02-26T02:55:01;100064.06;;;9.55;58.46
51496;BME280;37572;52.094;4.870;2024-02-26T02:57:26;100073.88;;;9.54;58.33
51496;BME280;37572;52.094;4.870;2024-02-26T02:59:51;100068.72;;;9.53;58.52
51496;BME280;37572;52.094;4.870;2024-02-26T03:02:17;100076.00;;;9.51;58.49
51496;BME280;37572;52.094;4.870;2024-02-26T03:04:42;100082.50;;;9.48;58.35
51496;BME280;37572;52.094;4.870;2024-02-26T03:07:07;100082.84;;;9.45;58.35
51496;BME280;37572;52.094;4.870;2024-02-26T03:09:33;100079.53;;;9.43;58.38
51496;BME280;37572;52.094;4.870;2024-02-26T03:11:58;100092.81;;;9.43;58.45
51496;BME280;37572;52.094;4.870;2024-02-26T03:14:23;100092.47;;;9.38;58.37
51496;BME280;37572;52.094;4.870;2024-02-26T03:16:49;100093.28;;;9.38;58.65
51496;BME280;37572;52.094;4.870;2024-02-26T03:19:15;100091.47;;;9.39;58.44
51496;BME280;37572;52.094;4.870;2024-02-26T03:21:41;100087.81;;;9.40;58.41
51496;BME280;37572;52.094;4.870;2024-02-26T03:24:06;100093.78;;;9.42;58.38
51496;BME280;37572;52.094;4.870;2024-02-26T03:26:34;100097.28;;;9.42;58.41
51496;BME280;37572;52.094;4.870;2024-02-26T03:28:59;100099.75;;;9.44;58.45
51496;BME280;37572;52.094;4.870;2024-02-26T03:31:24;100096.44;;;9.42;58.41
51496;BME280;37572;52.094;4.870;2024-02-26T03:33:49;100105.44;;;9.41;58.29
51496;BME280;37572;52.094;4.870;2024-02-26T03:36:15;100112.88;;;9.37;58.43
51496;BME280;37572;52.094;4.870;2024-02-26T03:38:40;100120.53;;;9.32;58.42
51496;BME280;37572;52.094;4.870;2024-02-26T03:41:05;100119.38;;;9.26;58.54
51496;BME280;37572;52.094;4.870;2024-02-26T03:43:31;100128.31;;;9.25;58.41
51496;BME280;37572;52.094;4.870;2024-02-26T03:45:57;100123.31;;;9.22;58.41
51496;BME280;37572;52.094;4.870;2024-02-26T03:48:22;100122.50;;;9.22;58.29
51496;BME280;37572;52.094;4.870;2024-02-26T03:50:47;100122.50;;;9.22;58.62
51496;BME280;37572;52.094;4.870;2024-02-26T03:53:12;100122.19;;;9.25;58.47
51496;BME280;37572;52.094;4.870;2024-02-26T03:55:38;100126.69;;;9.24;58.48
51496;BME280;37572;52.094;4.870;2024-02-26T03:58:03;100116.72;;;9.26;58.51
51496;BME280;37572;52.094;4.870;2024-02-26T04:00:29;100117.53;;;9.27;58.45
51496;BME280;37572;52.094;4.870;2024-02-26T04:02:55;100126.50;;;9.26;58.44
51496;BME280;37572;52.094;4.870;2024-02-26T04:05:21;100119.38;;;9.26;58.56
51496;BME280;37572;52.094;4.870;2024-02-26T04:07:46;100120.03;;;9.29;58.96
51496;BME280;37572;52.094;4.870;2024-02-26T04:10:12;100119.03;;;9.30;58.48
51496;BME280;37572;52.094;4.870;2024-02-26T04:12:41;100124.34;;;9.30;58.52
51496;BME280;37572;52.094;4.870;2024-02-26T04:15:08;100127.00;;;9.30;58.51
51496;BME280;37572;52.094;4.870;2024-02-26T04:17:34;100130.81;;;9.27;58.53
51496;BME280;37572;52.094;4.870;2024-02-26T04:19:59;100136.97;;;9.28;58.51
51496;BME280;37572;52.094;4.870;2024-02-26T04:22:24;100137.81;;;9.28;58.66
51496;BME280;37572;52.094;4.870;2024-02-26T04:24:50;100140.63;;;9.26;58.66
51496;BME280;37572;52.094;4.870;2024-02-26T04:27:15;100139.81;;;9.26;58.30
51496;BME280;37572;52.094;4.870;2024-02-26T04:29:40;100141.59;;;9.25;58.39
51496;BME280;37572;52.094;4.870;2024-02-26T04:32:06;100147.94;;;9.24;58.49
51496;BME280;37572;52.094;4.870;2024-02-26T04:34:31;100152.38;;;9.24;58.60
51496;BME280;37572;52.094;4.870;2024-02-26T04:36:56;100141.94;;;9.22;58.64
51496;BME280;37572;52.094;4.870;2024-02-26T04:39:22;100149.91;;;9.22;58.87
51496;BME280;37572;52.094;4.870;2024-02-26T04:41:47;100146.25;;;9.23;58.74
51496;BME280;37572;52.094;4.870;2024-02-26T04:44:12;100147.06;;;9.24;58.75
51496;BME280;37572;52.094;4.870;2024-02-26T04:46:38;100156.56;;;9.26;58.87
51496;BME280;37572;52.094;4.870;2024-02-26T04:49:03;100157.22;;;9.29;58.73
51496;BME280;37572;52.094;4.870;2024-02-26T04:51:28;100161.56;;;9.30;58.84
51496;BME280;37572;52.094;4.870;2024-02-26T04:53:54;100166.72;;;9.31;58.58
51496;BME280;37572;52.094;4.870;2024-02-26T04:56:21;100157.72;;;9.32;58.67
51496;BME280;37572;52.094;4.870;2024-02-26T04:58:46;100161.22;;;9.33;58.78
51496;BME280;37572;52.094;4.870;2024-02-26T05:01:12;100158.75;;;9.31;58.65
51496;BME280;37572;52.094;4.870;2024-02-26T05:03:37;100166.00;;;9.29;58.52
51496;BME280;37572;52.094;4.870;2024-02-26T05:06:02;100157.88;;;9.31;58.78
51496;BME280;37572;52.094;4.870;2024-02-26T05:08:28;100166.88;;;9.30;58.81
51496;BME280;37572;52.094;4.870;2024-02-26T05:10:55;100167.03;;;9.28;58.83
51496;BME280;37572;52.094;4.870;2024-02-26T05:13:21;100170.00;;;9.25;58.78
51496;BME280;37572;52.094;4.870;2024-02-26T05:15:46;100170.16;;;9.23;58.67
51496;BME280;37572;52.094;4.870;2024-02-26T05:18:14;100173.47;;;9.17;58.78
51496;BME280;37572;52.094;4.870;2024-02-26T05:20:39;100172.16;;;9.13;58.75
51496;BME280;37572;52.094;4.870;2024-02-26T05:23:05;100170.16;;;9.15;58.93
51496;BME280;37572;52.094;4.870;2024-02-26T05:25:30;100165.16;;;9.12;58.98
51496;BME280;37572;52.094;4.870;2024-02-26T05:27:56;100169.81;;;9.10;59.22
51496;BME280;37572;52.094;4.870;2024-02-26T05:30:21;100177.78;;;9.10;59.12
51496;BME280;37572;52.094;4.870;2024-02-26T05:32:47;100175.78;;;9.12;58.79
51496;BME280;37572;52.094;4.870;2024-02-26T05:35:12;100179.94;;;9.15;58.77
51496;BME280;37572;52.094;4.870;2024-02-26T05:37:37;100184.41;;;9.14;58.90
51496;BME280;37572;52.094;4.870;2024-02-26T05:40:03;100196.41;;;9.18;58.98
51496;BME280;37572;52.094;4.870;2024-02-26T05:42:29;100199.72;;;9.20;58.75
51496;BME280;37572;52.094;4.870;2024-02-26T05:44:55;100204.22;;;9.20;58.73
51496;BME280;37572;52.094;4.870;2024-02-26T05:47:20;100207.69;;;9.20;58.64
51496;BME280;37572;52.094;4.870;2024-02-26T05:49:45;100211.34;;;9.19;59.00
51496;BME280;37572;52.094;4.870;2024-02-26T05:52:10;100205.19;;;9.19;58.77
51496;BME280;37572;52.094;4.870;2024-02-26T05:54:36;100215.16;;;9.17;58.81
51496;BME280;37572;52.094;4.870;2024-02-26T05:57:01;100224.09;;;9.16;58.81
51496;BME280;37572;52.094;4.870;2024-02-26T05:59:26;100219.97;;;9.13;58.80
51496;BME280;37572;52.094;4.870;2024-02-26T06:01:52;100216.28;;;9.14;59.00
51496;BME280;37572;52.094;4.870;2024-02-26T06:04:17;100227.94;;;9.13;58.99
51496;BME280;37572;52.094;4.870;2024-02-26T06:06:44;100234.22;;;9.12;59.06
51496;BME280;37572;52.094;4.870;2024-02-26T06:09:10;100235.22;;;9.11;59.11
51496;BME280;37572;52.094;4.870;2024-02-26T06:11:36;100243.03;;;9.13;59.14
51496;BME280;37572;52.094;4.870;2024-02-26T06:14:01;100239.53;;;9.12;59.21
51496;BME280;37572;52.094;4.870;2024-02-26T06:16:27;100225.59;;;9.10;59.42
51496;BME280;37572;52.094;4.870;2024-02-26T06:18:52;100241.84;;;9.07;59.35
51496;BME280;37572;52.094;4.870;2024-02-26T06:21:18;100240.19;;;9.06;59.37
51496;BME280;37572;52.094;4.870;2024-02-26T06:23:43;100249.97;;;9.05;59.43
51496;BME280;37572;52.094;4.870;2024-02-26T06:26:08;100241.84;;;9.07;59.49
51496;BME280;37572;52.094;4.870;2024-02-26T06:28:35;100255.78;;;9.09;59.23
51496;BME280;37572;52.094;4.870;2024-02-26T06:31:01;100252.97;;;9.11;59.53
51496;BME280;37572;52.094;4.870;2024-02-26T06:33:27;100261.09;;;9.09;59.33
51496;BME280;37572;52.094;4.870;2024-02-26T06:35:53;100262.78;;;9.10;59.45
51496;BME280;37572;52.094;4.870;2024-02-26T06:38:18;100264.59;;;9.10;59.37
51496;BME280;37572;52.094;4.870;2024-02-26T06:40:44;100268.91;;;9.11;59.48
51496;BME280;37572;52.094;4.870;2024-02-26T06:43:09;100270.59;;;9.12;59.35
51496;BME280;37572;52.094;4.870;2024-02-26T06:45:35;100279.22;;;9.14;59.49
51496;BME280;37572;52.094;4.870;2024-02-26T06:48:00;100281.06;;;9.13;59.42
51496;BME280;37572;52.094;4.870;2024-02-26T06:50:26;100279.38;;;9.12;59.53
51496;BME280;37572;52.094;4.870;2024-02-26T06:52:51;100282.03;;;9.12;59.83
51496;BME280;37572;52.094;4.870;2024-02-26T06:55:16;100301.66;;;9.11;59.59
51496;BME280;37572;52.094;4.870;2024-02-26T06:57:42;100294.50;;;9.12;59.62
51496;BME280;37572;52.094;4.870;2024-02-26T07:00:08;100306.97;;;9.11;59.84
51496;BME280;37572;52.094;4.870;2024-02-26T07:02:33;100300.78;;;9.11;59.68
51496;BME280;37572;52.094;4.870;2024-02-26T07:04:59;100301.09;;;9.07;59.86
51496;BME280;37572;52.094;4.870;2024-02-26T07:07:25;100309.94;;;9.08;59.93
51496;BME280;37572;52.094;4.870;2024-02-26T07:09:50;100318.50;;;9.02;59.89
51496;BME280;37572;52.094;4.870;2024-02-26T07:12:15;100313.50;;;8.99;60.24
51496;BME280;37572;52.094;4.870;2024-02-26T07:14:46;100324.44;;;8.96;60.41
51496;BME280;37572;52.094;4.870;2024-02-26T07:17:11;100330.47;;;8.98;60.28
51496;BME280;37572;52.094;4.870;2024-02-26T07:19:36;100336.59;;;8.98;60.20
51496;BME280;37572;52.094;4.870;2024-02-26T07:22:02;100347.53;;;8.95;60.40
51496;BME280;37572;52.094;4.870;2024-02-26T07:24:27;100344.03;;;8.95;60.52
51496;BME280;37572;52.094;4.870;2024-02-26T07:26:53;100344.88;;;8.95;60.49
51496;BME280;37572;52.094;4.870;2024-02-26T07:29:20;100345.03;;;8.94;60.48
51496;BME280;37572;52.094;4.870;2024-02-26T07:31:45;100344.66;;;8.88;60.43
51496;BME280;37572;52.094;4.870;2024-02-26T07:34:11;100338.38;;;8.89;60.76
51496;BME280;37572;52.094;4.870;2024-02-26T07:36:36;100349.66;;;8.92;60.48
51496;BME280;37572;52.094;4.870;2024-02-26T07:39:02;100358.47;;;8.92;60.62
51496;BME280;37572;52.094;4.870;2024-02-26T07:41:27;100358.63;;;8.91;60.64
51496;BME280;37572;52.094;4.870;2024-02-26T07:43:52;100353.31;;;8.91;60.79
51496;BME280;37572;52.094;4.870;2024-02-26T07:46:18;100359.47;;;8.91;60.57
51496;BME280;37572;52.094;4.870;2024-02-26T07:48:43;100381.53;;;8.92;60.77
51496;BME280;37572;52.094;4.870;2024-02-26T07:51:08;100378.06;;;8.91;60.59
51496;BME280;37572;52.094;4.870;2024-02-26T07:53:34;100373.72;;;8.90;60.80
51496;BME280;37572;52.094;4.870;2024-02-26T07:55:59;100369.53;;;8.87;60.87
51496;BME280;37572;52.094;4.870;2024-02-26T07:58:24;100375.84;;;8.86;60.74
51496;BME280;37572;52.094;4.870;2024-02-26T08:00:50;100393.44;;;8.87;60.61
51496;BME280;37572;52.094;4.870;2024-02-26T08:03:15;100392.47;;;8.88;60.84
51496;BME280;37572;52.094;4.870;2024-02-26T08:05:41;100403.91;;;8.89;60.72
51496;BME280;37572;52.094;4.870;2024-02-26T08:08:08;100401.81;;;8.93;60.72
51496;BME280;37572;52.094;4.870;2024-02-26T08:10:33;100398.81;;;8.96;60.56
51496;BME280;37572;52.094;4.870;2024-02-26T08:12:58;100411.56;;;8.92;60.69
51496;BME280;37572;52.094;4.870;2024-02-26T08:15:31;100410.75;;;8.92;60.63
51496;BME280;37572;52.094;4.870;2024-02-26T08:17:56;100409.78;;;8.93;60.57
51496;BME280;37572;52.094;4.870;2024-02-26T08:20:21;100413.56;;;8.90;60.45
51496;BME280;37572;52.094;4.870;2024-02-26T08:22:47;100413.72;;;8.88;60.40
51496;BME280;37572;52.094;4.870;2024-02-26T08:25:12;100418.03;;;8.89;60.61
51496;BME280;37572;52.094;4.870;2024-02-26T08:27:37;100420.41;;;8.93;60.71
51496;BME280;37572;52.094;4.870;2024-02-26T08:30:03;100427.66;;;8.91;60.35
51496;BME280;37572;52.094;4.870;2024-02-26T08:32:28;100429.78;;;8.87;60.78
51496;BME280;37572;52.094;4.870;2024-02-26T08:34:54;100435.09;;;8.87;60.64
51496;BME280;37572;52.094;4.870;2024-02-26T08:37:19;100436.25;;;8.84;60.49
51496;BME280;37572;52.094;4.870;2024-02-26T08:39:44;100450.38;;;8.85;60.64
51496;BME280;37572;52.094;4.870;2024-02-26T08:42:11;100457.50;;;8.84;60.71
51496;BME280;37572;52.094;4.870;2024-02-26T08:44:36;100453.53;;;8.88;60.62
51496;BME280;37572;52.094;4.870;2024-02-26T08:47:01;100446.94;;;8.93;60.64
51496;BME280;37572;52.094;4.870;2024-02-26T08:49:27;100443.59;;;8.91;60.61
51496;BME280;37572;52.094;4.870;2024-02-26T08:51:53;100458.84;;;8.88;60.62
51496;BME280;37572;52.094;4.870;2024-02-26T08:54:18;100448.75;;;8.92;60.44
51496;BME280;37572;52.094;4.870;2024-02-26T08:56:43;100455.91;;;8.92;60.58
51496;BME280;37572;52.094;4.870;2024-02-26T08:59:09;100468.56;;;8.98;60.56
51496;BME280;37572;52.094;4.870;2024-02-26T09:01:34;100457.09;;;8.97;60.40
51496;BME280;37572;52.094;4.870;2024-02-26T09:03:59;100466.59;;;9.00;60.28
51496;BME280;37572;52.094;4.870;2024-02-26T09:06:24;100476.38;;;8.99;60.08
51496;BME280;37572;52.094;4.870;2024-02-26T09:08:50;100478.84;;;9.01;60.07
51496;BME280;37572;52.094;4.870;2024-02-26T09:11:16;100478.56;;;9.04;60.15
51496;BME280;37572;52.094;4.870;2024-02-26T09:13:41;100485.69;;;9.03;60.05
51496;BME280;37572;52.094;4.870;2024-02-26T09:16:07;100495.34;;;9.04;59.89
51496;BME280;37572;52.094;4.870;2024-02-26T09:18:32;100493.66;;;9.03;59.91
51496;BME280;37572;52.094;4.870;2024-02-26T09:20:57;100495.50;;;9.03;60.19
51496;BME280;37572;52.094;4.870;2024-02-26T09:23:23;100499.94;;;9.02;59.97
51496;BME280;37572;52.094;4.870;2024-02-26T09:25:48;100510.72;;;9.01;60.21
51496;BME280;37572;52.094;4.870;2024-02-26T09:28:13;100511.88;;;8.98;60.12
51496;BME280;37572;52.094;4.870;2024-02-26T09:30:41;100512.84;;;8.97;60.22
51496;BME280;37572;52.094;4.870;2024-02-26T09:33:07;100517.06;;;9.00;59.96
51496;BME280;37572;52.094;4.870;2024-02-26T09:35:32;100498.47;;;9.00;60.04
51496;BME280;37572;52.094;4.870;2024-02-26T09:37:57;100514.38;;;9.00;60.01
51496;BME280;37572;52.094;4.870;2024-02-26T09:40:23;100532.38;;;9.06;59.99
51496;BME280;37572;52.094;4.870;2024-02-26T09:42:51;100531.53;;;9.05;59.89
51496;BME280;37572;52.094;4.870;2024-02-26T09:45:19;100533.06;;;9.08;59.93
51496;BME280;37572;52.094;4.870;2024-02-26T09:47:48;100526.22;;;9.05;59.87
51496;BME280;37572;52.094;4.870;2024-02-26T09:50:19;100536.69;;;9.07;60.01
51496;BME280;37572;52.094;4.870;2024-02-26T09:52:48;100543.69;;;9.08;59.61
51496;BME280;37572;52.094;4.870;2024-02-26T09:55:13;100542.31;;;9.04;59.95
51496;BME280;37572;52.094;4.870;2024-02-26T09:57:44;100536.00;;;9.05;60.02
51496;BME280;37572;52.094;4.870;2024-02-26T10:00:14;100553.41;;;8.99;60.19
51496;BME280;37572;52.094;4.870;2024-02-26T10:02:41;100551.44;;;9.01;60.10
51496;BME280;37572;52.094;4.870;2024-02-26T10:05:07;100566.72;;;9.07;60.34
51496;BME280;37572;52.094;4.870;2024-02-26T10:07:35;100562.81;;;9.12;60.25
51496;BME280;37572;52.094;4.870;2024-02-26T10:10:01;100568.34;;;9.18;60.42
51496;BME280;37572;52.094;4.870;2024-02-26T10:12:28;100565.69;;;9.18;60.22
51496;BME280;37572;52.094;4.870;2024-02-26T10:14:54;100562.34;;;9.16;60.36
51496;BME280;37572;52.094;4.870;2024-02-26T10:17:20;100569.00;;;9.20;60.26
51496;BME280;37572;52.094;4.870;2024-02-26T10:19:45;100565.22;;;9.23;60.17
51496;BME280;37572;52.094;4.870;2024-02-26T10:22:10;100576.38;;;9.26;60.60
51496;BME280;37572;52.094;4.870;2024-02-26T10:24:36;100576.06;;;9.30;60.60
51496;BME280;37572;52.094;4.870;2024-02-26T10:27:02;100582.75;;;9.34;60.52
51496;BME280;37572;52.094;4.870;2024-02-26T10:29:28;100584.56;;;9.33;60.56
51496;BME280;37572;52.094;4.870;2024-02-26T10:31:53;100590.56;;;9.35;60.77
51496;BME280;37572;52.094;4.870;2024-02-26T10:34:20;100590.41;;;9.37;60.48
51496;BME280;37572;52.094;4.870;2024-02-26T10:36:45;100595.28;;;9.41;60.75
51496;BME280;37572;52.094;4.870;2024-02-26T10:39:14;100600.44;;;9.43;60.77
51496;BME280;37572;52.094;4.870;2024-02-26T10:41:43;100607.25;;;9.45;60.74
51496;BME280;37572;52.094;4.870;2024-02-26T10:44:09;100620.25;;;9.49;60.87
51496;BME280;37572;52.094;4.870;2024-02-26T10:46:40;100608.63;;;9.50;60.60
51496;BME280;37572;52.094;4.870;2024-02-26T10:49:13;100624.28;;;9.53;60.61
51496;BME280;37572;52.094;4.870;2024-02-26T10:51:40;100634.34;;;9.49;60.65
51496;BME280;37572;52.094;4.870;2024-02-26T10:54:08;100629.03;;;9.49;60.87
51496;BME280;37572;52.094;4.870;2024-02-26T10:56:36;100628.06;;;9.50;60.79
51496;BME280;37572;52.094;4.870;2024-02-26T10:59:03;100647.44;;;9.42;60.73
51496;BME280;37572;52.094;4.870;2024-02-26T11:01:29;100641.13;;;9.43;60.75
51496;BME280;37572;52.094;4.870;2024-02-26T11:03:56;100641.13;;;9.43;60.91
51496;BME280;37572;52.094;4.870;2024-02-26T11:06:23;100651.63;;;9.45;60.74
51496;BME280;37572;52.094;4.870;2024-02-26T11:08:49;100651.47;;;9.47;60.96
51496;BME280;37572;52.094;4.870;2024-02-26T11:11:16;100653.97;;;9.48;60.81
51496;BME280;37572;52.094;4.870;2024-02-26T11:13:42;100648.34;;;9.51;61.07
51496;BME280;37572;52.094;4.870;2024-02-26T11:16:11;100650.88;;;9.53;61.00
51496;BME280;37572;52.094;4.870;2024-02-26T11:18:37;100652.38;;;9.55;60.81
51496;BME280;37572;52.094;4.870;2024-02-26T11:21:05;100669.00;;;9.57;60.95
51496;BME280;37572;52.094;4.870;2024-02-26T11:23:34;100671.81;;;9.56;60.94
51496;BME280;37572;52.094;4.870;2024-02-26T11:26:04;100665.66;;;9.55;60.90
51496;BME280;37572;52.094;4.870;2024-02-26T11:28:32;100664.00;;;9.54;60.92
51496;BME280;37572;52.094;4.870;2024-02-26T11:30:59;100671.97;;;9.54;60.95
51496;BME280;37572;52.094;4.870;2024-02-26T11:33:25;100674.63;;;9.54;61.27
51496;BME280;37572;52.094;4.870;2024-02-26T11:35:51;100679.63;;;9.57;61.26
51496;BME280;37572;52.094;4.870;2024-02-26T11:38:20;100680.47;;;9.58;61.10
51496;BME280;37572;52.094;4.870;2024-02-26T11:40:46;100692.63;;;9.60;61.21
51496;BME280;37572;52.094;4.870;2024-02-26T11:43:12;100703.09;;;9.62;60.86
51496;BME280;37572;52.094;4.870;2024-02-26T11:50:47;100703.84;;;9.72;60.75
51496;BME280;37572;52.094;4.870;2024-02-26T11:53:27;100711.97;;;9.71;60.81
51496;BME280;37572;52.094;4.870;2024-02-26T11:59:00;100707.38;;;9.73;60.74
51496;BME280;37572;52.094;4.870;2024-02-26T12:04:21;100704.41;;;9.76;60.80
51496;BME280;37572;52.094;4.870;2024-02-26T12:06:52;100711.22;;;9.78;60.68
51496;BME280;37572;52.094;4.870;2024-02-26T12:11:56;100709.94;;;9.82;60.63
51496;BME280;37572;52.094;4.870;2024-02-26T12:14:25;100724.91;;;9.84;60.61
51496;BME280;37572;52.094;4.870;2024-02-26T12:16:51;100706.13;;;9.85;60.22
51496;BME280;37572;52.094;4.870;2024-02-26T12:19:18;100721.09;;;9.86;60.41
51496;BME280;37572;52.094;4.870;2024-02-26T12:21:43;100725.28;;;9.89;60.39
51496;BME280;37572;52.094;4.870;2024-02-26T12:24:15;100725.78;;;9.92;60.26
51496;BME280;37572;52.094;4.870;2024-02-26T12:26:41;100726.34;;;9.96;60.27
51496;BME280;37572;52.094;4.870;2024-02-26T12:29:07;100724.88;;;10.02;60.57
51496;BME280;37572;52.094;4.870;2024-02-26T12:31:33;100738.69;;;10.05;60.18
51496;BME280;37572;52.094;4.870;2024-02-26T12:34:02;100745.88;;;10.05;59.91
51496;BME280;37572;52.094;4.870;2024-02-26T12:36:27;100736.88;;;10.06;59.81
51496;BME280;37572;52.094;4.870;2024-02-26T12:38:53;100744.53;;;10.09;59.82
51496;BME280;37572;52.094;4.870;2024-02-26T12:41:18;100740.59;;;10.13;59.47
51496;BME280;37572;52.094;4.870;2024-02-26T12:43:44;100749.41;;;10.13;59.19
51496;BME280;37572;52.094;4.870;2024-02-26T12:46:11;100760.56;;;10.17;59.48
51496;BME280;37572;52.094;4.870;2024-02-26T12:48:38;100749.31;;;10.23;59.59
51496;BME280;37572;52.094;4.870;2024-02-26T12:51:04;100763.31;;;10.25;59.51
51496;BME280;37572;52.094;4.870;2024-02-26T12:53:30;100767.19;;;10.31;59.29
51496;BME280;37572;52.094;4.870;2024-02-26T12:55:55;100767.75;;;10.34;59.23
51496;BME280;37572;52.094;4.870;2024-02-26T12:58:21;100772.22;;;10.34;58.88
51496;BME280;37572;52.094;4.870;2024-02-26T13:00:51;100766.72;;;10.35;58.62
51496;BME280;37572;52.094;4.870;2024-02-26T13:03:17;100771.75;;;10.39;58.67
51496;BME280;37572;52.094;4.870;2024-02-26T13:05:43;100779.94;;;10.45;58.62